Two Gray Hills, New Mexico
Current Conditions -  °F | °C
As of 9:53 PM on Saturday 22 Nov 2014 (Local Time) from KGUP Reporting Station
Clear Clear  
Wind Chill: 33°   Ceiling: Unl
Heat Index: 43°   Visibility: 10mi
Dew Point: 16°   Wind: 25mph
Humidity: 34%   Direction: 240°WSW
Pressure: 29.92"   Gusts: 32mph
Location:  35.8166°N, 108.573°W
Report Text: KGUP 230453Z AUTO 24022G28KT 10SM CLR 06/M09 A2992 RMK AO2 PK WND 24028/0450 SLP103 T00611089
Loading
Personal Weather Stations






























Interactive Weather Map New forecast layout! Learn more

10-Day Weather Forecast

Advertisements
Track Severe Weather on mobile